Time;durP1;ratioP1;P1;durP2;ratioP2;P2;SDS_P1;SDS_P2;PMS_P1;PMS_P2;Temp;Humidity;BMP_temperature;BMP_pressure;BME280_temperature;BME280_humidity;BME280_pressure;Samples;Min_cycle;Max_cycle;Signal;HPM_P1;HPM_P2
2022/10/27 00:01:56;;;;;;;;;;;14.60;99.90;;;;;;5073405;28;19999;-49
2022/10/27 00:04:21;;;;;;;;;;;14.60;99.90;;;;;;5073766;28;20385;-49
2022/10/27 00:06:47;;;;;;;;;;;14.60;99.90;;;;;;5087630;28;19920;-49
2022/10/27 00:09:12;;;;;;;;;;;14.60;99.90;;;;;;5093102;28;19920;-49
2022/10/27 00:11:37;;;;;;;;;;;14.60;99.90;;;;;;5092972;28;19994;-50
2022/10/27 00:14:03;;;;;;;;;;;14.60;99.90;;;;;;5090904;28;19986;-50
2022/10/27 00:16:28;;;;;;;;;;;14.60;99.90;;;;;;5080126;28;19920;-50
2022/10/27 00:18:54;;;;;;;;;;;14.50;99.90;;;;;;5079603;28;19920;-50
2022/10/27 00:21:20;;;;;;;;;;;14.50;99.90;;;;;;5087140;28;19920;-50
2022/10/27 00:23:51;;;;;;;;;;;14.50;99.90;;;;;;5092784;28;19975;-50
2022/10/27 00:26:18;;;;;;;;;;;14.40;99.90;;;;;;5092581;28;19978;-52
2022/10/27 00:28:43;;;;;;;;;;;14.40;99.90;;;;;;5092642;28;19927;-52
2022/10/27 00:31:13;;;;;;;;;;;14.40;99.90;;;;;;5092659;28;19924;-51
2022/10/27 00:33:39;;;;;;;;;;;14.40;99.90;;;;;;5077452;28;19974;-52
2022/10/27 00:36:05;;;;;;;;;;;14.40;99.90;;;;;;5084276;28;19924;-51
2022/10/27 00:38:30;;;;;;;;;;;14.40;99.90;;;;;;5091694;28;20342;-54
2022/10/27 00:40:56;;;;;;;;;;;14.40;99.90;;;;;;5092523;28;20233;-52
2022/10/27 00:43:26;;;;;;;;;;;14.30;99.90;;;;;;5092493;28;20016;-50
2022/10/27 00:45:51;;;;;;;;;;;14.40;99.90;;;;;;5093176;28;19924;-52
2022/10/27 00:48:17;;;;;;;;;;;14.40;99.90;;;;;;5091813;28;19946;-50
2022/10/27 00:50:43;;;;;;;;;;;14.40;99.90;;;;;;5076953;28;20211;-50
2022/10/27 00:53:09;;;;;;;;;;;14.50;99.90;;;;;;5071835;28;19963;-49
2022/10/27 00:55:35;;;;;;;;;;;14.50;99.90;;;;;;5072071;28;19959;-49
2022/10/27 00:58:03;;;;;;;;;;;14.50;99.90;;;;;;5072340;28;19921;-50
2022/10/27 01:00:28;;;;;;;;;;;14.60;99.90;;;;;;5073355;28;19921;-52
2022/10/27 01:02:54;;;;;;;;;;;14.60;99.90;;;;;;5071832;28;19943;-50
2022/10/27 01:05:21;;;;;;;;;;;14.70;99.90;;;;;;5076946;28;19924;-51
2022/10/27 01:07:48;;;;;;;;;;;14.70;99.90;;;;;;5092163;28;19920;-49
2022/10/27 01:10:15;;;;;;;;;;;14.70;99.90;;;;;;5091082;28;20009;-54
2022/10/27 01:12:40;;;;;;;;;;;14.80;99.90;;;;;;5092090;28;20315;-53
2022/10/27 01:15:06;;;;;;;;;;;14.80;99.90;;;;;;5091692;28;19946;-51
2022/10/27 01:17:38;;;;;;;;;;;14.80;99.90;;;;;;5090742;28;19923;-51
2022/10/27 01:20:17;;;;;;;;;;;14.80;99.90;;;;;;5092466;28;19927;-55
2022/10/27 01:22:42;;;;;;;;;;;14.80;99.90;;;;;;5090885;28;19931;-54
2022/10/27 01:25:27;;;;;;;;;;;14.80;99.90;;;;;;5091642;28;20392;-49
2022/10/27 01:27:53;;;;;;;;;;;14.90;99.90;;;;;;5091107;28;20389;-52
2022/10/27 01:30:19;;;;;;;;;;;14.90;99.90;;;;;;5091602;28;19920;-51
2022/10/27 01:32:59;;;;;;;;;;;14.80;99.90;;;;;;5089915;28;19963;-50
2022/10/27 01:35:24;;;;;;;;;;;14.90;99.90;;;;;;5077847;28;19924;-53
2022/10/27 01:38:05;;;;;;;;;;;14.90;99.90;;;;;;5078173;28;20349;-51
2022/10/27 01:40:45;;;;;;;;;;;14.80;99.90;;;;;;5090202;28;20010;-53
2022/10/27 01:43:16;;;;;;;;;;;14.80;99.90;;;;;;5085678;28;20303;-51
2022/10/27 01:45:42;;;;;;;;;;;14.80;99.90;;;;;;5071439;28;19979;-51
2022/10/27 01:48:09;;;;;;;;;;;14.80;99.90;;;;;;5076789;28;19966;-51
2022/10/27 01:50:36;;;;;;;;;;;14.80;99.90;;;;;;5074684;28;19925;-51
2022/10/27 01:53:02;;;;;;;;;;;14.80;99.90;;;;;;5080042;28;19920;-54
2022/10/27 01:55:27;;;;;;;;;;;14.80;99.90;;;;;;5091396;28;20451;-50
2022/10/27 01:58:12;;;;;;;;;;;14.80;99.90;;;;;;5091446;28;19919;-53
2022/10/27 02:00:52;;;;;;;;;;;14.80;99.90;;;;;;5090164;28;19920;-53
2022/10/27 02:03:22;;;;;;;;;;;14.80;99.90;;;;;;5081172;28;19920;-52
2022/10/27 02:05:50;;;;;;;;;;;14.80;99.90;;;;;;5077700;28;19961;-53
2022/10/27 02:08:19;;;;;;;;;;;14.80;99.90;;;;;;5071537;28;19924;-53
2022/10/27 02:10:48;;;;;;;;;;;14.80;99.90;;;;;;5091131;28;19924;-50
2022/10/27 02:13:13;;;;;;;;;;;14.80;99.90;;;;;;5091112;28;20223;-49
2022/10/27 02:15:41;;;;;;;;;;;14.80;99.90;;;;;;5090593;28;19949;-51
2022/10/27 02:18:14;;;;;;;;;;;14.80;99.90;;;;;;5090207;28;19943;-53
2022/10/27 02:20:42;;;;;;;;;;;14.90;99.90;;;;;;5090518;28;19927;-53
2022/10/27 02:23:09;;;;;;;;;;;14.80;99.90;;;;;;5090220;28;19930;-53
2022/10/27 02:25:37;;;;;;;;;;;14.80;99.90;;;;;;5088623;28;20045;-54
2022/10/27 02:28:05;;;;;;;;;;;14.90;99.90;;;;;;5090974;28;19920;-53
2022/10/27 02:30:32;;;;;;;;;;;14.90;99.90;;;;;;5075735;28;19921;-54
2022/10/27 02:32:57;;;;;;;;;;;14.80;99.90;;;;;;5070308;28;20373;-50
2022/10/27 02:35:23;;;;;;;;;;;14.80;99.90;;;;;;5071077;28;19920;-52
2022/10/27 02:37:48;;;;;;;;;;;14.80;99.90;;;;;;5069292;28;19924;-50
2022/10/27 02:40:14;;;;;;;;;;;14.80;99.90;;;;;;5070521;28;20393;-49
2022/10/27 02:42:39;;;;;;;;;;;14.80;99.90;;;;;;5070296;28;19928;-51
2022/10/27 02:45:05;;;;;;;;;;;14.80;99.90;;;;;;5070155;28;19936;-49
2022/10/27 02:47:30;;;;;;;;;;;14.70;99.90;;;;;;5071504;28;19924;-52
2022/10/27 02:49:56;;;;;;;;;;;14.70;99.90;;;;;;5071490;28;19920;-52
2022/10/27 02:52:21;;;;;;;;;;;14.70;99.90;;;;;;5069834;28;20296;-51
2022/10/27 02:54:47;;;;;;;;;;;14.60;99.90;;;;;;5078986;28;19985;-49
2022/10/27 02:57:14;;;;;;;;;;;14.60;99.90;;;;;;5072196;28;20003;-51
2022/10/27 02:59:39;;;;;;;;;;;14.60;99.90;;;;;;5081284;28;20278;-53
2022/10/27 03:02:05;;;;;;;;;;;14.60;99.90;;;;;;5084866;28;19977;-50
2022/10/27 03:04:30;;;;;;;;;;;14.50;99.90;;;;;;5089288;28;20015;-51
2022/10/27 03:06:56;;;;;;;;;;;14.50;99.90;;;;;;5090552;28;19920;-49
2022/10/27 03:09:21;;;;;;;;;;;14.50;99.90;;;;;;5089610;28;19920;-50
2022/10/27 03:11:47;;;;;;;;;;;14.50;99.90;;;;;;5090426;28;19920;-51
2022/10/27 03:14:12;;;;;;;;;;;14.40;99.90;;;;;;5089949;28;20335;-51
2022/10/27 03:16:37;;;;;;;;;;;14.40;99.90;;;;;;5090439;28;19920;-49
2022/10/27 03:19:03;;;;;;;;;;;14.40;99.90;;;;;;5078433;28;20007;-51
2022/10/27 03:21:28;;;;;;;;;;;14.40;99.90;;;;;;5068730;28;20333;-49
2022/10/27 03:23:54;;;;;;;;;;;14.30;99.90;;;;;;5069874;28;20027;-52
2022/10/27 03:26:19;;;;;;;;;;;14.30;99.90;;;;;;5076170;28;19921;-50
2022/10/27 03:28:45;;;;;;;;;;;14.30;99.90;;;;;;5070295;28;19978;-50
2022/10/27 03:31:10;;;;;;;;;;;14.30;99.90;;;;;;5076536;28;19924;-49
2022/10/27 03:33:36;;;;;;;;;;;14.20;99.90;;;;;;5088186;28;19920;-52
2022/10/27 03:36:01;;;;;;;;;;;14.20;99.90;;;;;;5083531;28;20636;-49
2022/10/27 03:38:26;;;;;;;;;;;14.10;99.90;;;;;;5070506;28;19920;-51
2022/10/27 03:40:52;;;;;;;;;;;14.10;99.90;;;;;;5084163;28;19966;-52
2022/10/27 03:43:17;;;;;;;;;;;14.10;99.90;;;;;;5084743;28;20568;-51
2022/10/27 03:45:46;;;;;;;;;;;14.10;99.90;;;;;;5080599;28;19920;-49
2022/10/27 03:48:11;;;;;;;;;;;14.00;99.90;;;;;;5070622;28;19963;-49
2022/10/27 03:50:37;;;;;;;;;;;14.00;99.90;;;;;;5072630;28;20435;-54
2022/10/27 03:53:03;;;;;;;;;;;14.00;99.90;;;;;;5076520;28;19921;-51
2022/10/27 03:55:29;;;;;;;;;;;14.00;99.90;;;;;;5080329;28;19935;-51
2022/10/27 03:57:55;;;;;;;;;;;14.00;99.90;;;;;;5083052;28;19924;-52
2022/10/27 04:00:21;;;;;;;;;;;13.90;99.90;;;;;;5081799;28;19920;-54
2022/10/27 04:02:46;;;;;;;;;;;13.90;99.90;;;;;;5084386;28;19973;-51
2022/10/27 04:05:12;;;;;;;;;;;13.90;99.90;;;;;;5089502;28;19928;-50
2022/10/27 04:07:37;;;;;;;;;;;13.80;99.90;;;;;;5089535;28;19983;-51
2022/10/27 04:10:03;;;;;;;;;;;13.70;99.90;;;;;;5092312;28;19920;-50
2022/10/27 04:12:28;;;;;;;;;;;13.70;99.90;;;;;;5079242;28;19920;-52
2022/10/27 04:14:54;;;;;;;;;;;13.70;99.90;;;;;;5092371;28;19920;-50
2022/10/27 04:17:19;;;;;;;;;;;13.70;99.90;;;;;;5092416;28;19942;-49
2022/10/27 04:19:45;;;;;;;;;;;13.70;99.90;;;;;;5092054;28;19932;-49
2022/10/27 04:22:10;;;;;;;;;;;13.60;99.90;;;;;;5093420;28;20289;-49
2022/10/27 04:24:39;;;;;;;;;;;13.60;99.90;;;;;;5073983;28;19931;-54
2022/10/27 04:27:05;;;;;;;;;;;13.60;99.90;;;;;;5073070;28;19990;-50
2022/10/27 04:29:30;;;;;;;;;;;13.60;99.90;;;;;;5078791;28;20011;-54
2022/10/27 04:31:56;;;;;;;;;;;13.50;99.90;;;;;;5092533;28;20007;-52
2022/10/27 04:34:21;;;;;;;;;;;13.40;99.90;;;;;;5091179;28;19931;-49
2022/10/27 04:36:47;;;;;;;;;;;13.30;99.90;;;;;;5093177;28;19921;-51
2022/10/27 04:39:14;;;;;;;;;;;13.30;99.90;;;;;;5091889;28;19920;-51
2022/10/27 04:41:39;;;;;;;;;;;13.30;99.90;;;;;;5090626;28;19929;-49
2022/10/27 04:44:05;;;;;;;;;;;13.30;99.90;;;;;;5079370;28;20015;-52
2022/10/27 04:46:30;;;;;;;;;;;13.30;99.90;;;;;;5073000;28;20346;-54
2022/10/27 04:48:56;;;;;;;;;;;13.30;99.90;;;;;;5081230;28;19978;-51
2022/10/27 04:51:21;;;;;;;;;;;13.20;99.90;;;;;;5076471;28;20487;-51
2022/10/27 04:53:47;;;;;;;;;;;13.30;99.90;;;;;;5079564;28;19924;-52
2022/10/27 04:56:12;;;;;;;;;;;13.20;99.90;;;;;;5080342;28;19921;-53
2022/10/27 04:58:38;;;;;;;;;;;13.20;99.90;;;;;;5089352;28;20471;-49
2022/10/27 05:01:10;;;;;;;;;;;13.20;99.90;;;;;;5090695;28;19920;-52
2022/10/27 05:03:35;;;;;;;;;;;13.20;99.90;;;;;;5080160;28;20402;-50
2022/10/27 05:06:01;;;;;;;;;;;13.20;99.90;;;;;;5083123;28;19924;-50
2022/10/27 05:08:26;;;;;;;;;;;13.20;99.90;;;;;;5087203;28;19946;-50
2022/10/27 05:10:51;;;;;;;;;;;13.20;99.90;;;;;;5088571;28;19920;-48
2022/10/27 05:13:17;;;;;;;;;;;13.20;99.90;;;;;;5083532;28;20408;-51
2022/10/27 05:15:42;;;;;;;;;;;13.20;99.90;;;;;;5076409;28;19926;-49
2022/10/27 05:18:08;;;;;;;;;;;13.20;99.90;;;;;;5082765;28;19928;-49
2022/10/27 05:20:33;;;;;;;;;;;13.10;99.90;;;;;;5076592;28;19939;-52
2022/10/27 05:22:59;;;;;;;;;;;13.10;99.90;;;;;;5072571;28;19972;-49
2022/10/27 05:25:24;;;;;;;;;;;13.00;99.90;;;;;;5076909;28;19928;-49
2022/10/27 05:27:50;;;;;;;;;;;13.00;99.90;;;;;;5084884;28;19921;-50
2022/10/27 05:30:15;;;;;;;;;;;13.00;99.90;;;;;;5076742;28;19970;-50
2022/10/27 05:32:41;;;;;;;;;;;13.00;99.90;;;;;;5074776;28;19986;-52
2022/10/27 05:35:07;;;;;;;;;;;13.00;99.90;;;;;;5088651;28;19920;-49
2022/10/27 05:37:32;;;;;;;;;;;13.00;99.90;;;;;;5085480;28;19927;-51
2022/10/27 05:39:59;;;;;;;;;;;13.00;99.90;;;;;;5091096;28;19920;-51
2022/10/27 05:42:25;;;;;;;;;;;13.00;99.90;;;;;;5081121;28;20044;-49
2022/10/27 05:44:51;;;;;;;;;;;13.00;99.90;;;;;;5074603;28;19970;-50
2022/10/27 05:47:16;;;;;;;;;;;12.90;99.90;;;;;;5085937;28;19920;-49
2022/10/27 05:49:41;;;;;;;;;;;12.90;99.90;;;;;;5082023;28;19947;-50
2022/10/27 05:52:07;;;;;;;;;;;12.90;99.90;;;;;;5086814;28;19920;-51
2022/10/27 05:54:32;;;;;;;;;;;12.90;99.90;;;;;;5088452;28;19932;-52
2022/10/27 05:56:58;;;;;;;;;;;12.90;99.90;;;;;;5091058;28;19924;-50
2022/10/27 05:59:23;;;;;;;;;;;12.80;99.90;;;;;;5074231;28;19927;-50
2022/10/27 06:01:49;;;;;;;;;;;12.80;99.90;;;;;;5073652;28;20259;-48
2022/10/27 06:04:14;;;;;;;;;;;12.70;99.90;;;;;;5084960;28;19931;-50
2022/10/27 06:06:40;;;;;;;;;;;12.60;99.90;;;;;;5080078;28;20371;-49
2022/10/27 06:09:05;;;;;;;;;;;12.50;99.90;;;;;;5085704;28;19927;-49
2022/10/27 06:11:31;;;;;;;;;;;12.50;99.90;;;;;;5072725;28;20442;-49
2022/10/27 06:13:56;;;;;;;;;;;12.50;99.90;;;;;;5072400;28;20099;-50
2022/10/27 06:16:24;;;;;;;;;;;12.50;99.90;;;;;;5084274;28;19927;-50
2022/10/27 06:18:50;;;;;;;;;;;12.50;99.90;;;;;;5091265;28;19924;-49
2022/10/27 06:21:15;;;;;;;;;;;12.60;99.90;;;;;;5089381;28;20385;-49
2022/10/27 06:23:41;;;;;;;;;;;12.60;99.90;;;;;;5086029;28;19928;-49
2022/10/27 06:26:08;;;;;;;;;;;12.60;99.90;;;;;;5090484;28;19928;-50
2022/10/27 06:28:34;;;;;;;;;;;12.70;99.90;;;;;;5088880;28;20040;-53
2022/10/27 06:30:59;;;;;;;;;;;12.80;99.90;;;;;;5084933;28;19964;-50
2022/10/27 06:33:25;;;;;;;;;;;12.80;99.90;;;;;;5070428;28;19924;-49
2022/10/27 06:35:50;;;;;;;;;;;12.90;99.90;;;;;;5071839;28;20421;-49
2022/10/27 06:38:16;;;;;;;;;;;13.00;99.90;;;;;;5071797;28;19920;-49
2022/10/27 06:40:42;;;;;;;;;;;13.00;99.90;;;;;;5070770;28;19944;-49
2022/10/27 06:43:08;;;;;;;;;;;13.00;99.90;;;;;;5070075;28;20011;-51
2022/10/27 06:45:34;;;;;;;;;;;13.10;99.90;;;;;;5072118;28;20378;-52
2022/10/27 06:48:02;;;;;;;;;;;13.10;99.90;;;;;;5070563;28;20385;-51
2022/10/27 06:50:29;;;;;;;;;;;13.20;99.90;;;;;;5078453;28;19928;-52
2022/10/27 06:52:54;;;;;;;;;;;13.30;99.90;;;;;;5079949;28;19963;-53
2022/10/27 06:55:20;;;;;;;;;;;13.30;99.90;;;;;;5074815;28;19975;-52
2022/10/27 06:57:45;;;;;;;;;;;13.30;99.90;;;;;;5084901;28;19923;-50
2022/10/27 07:00:11;;;;;;;;;;;13.40;99.90;;;;;;5080163;28;19928;-53
2022/10/27 07:02:36;;;;;;;;;;;13.50;99.90;;;;;;5089604;28;20407;-54
2022/10/27 07:05:03;;;;;;;;;;;13.50;99.90;;;;;;5083644;28;19978;-49
2022/10/27 07:07:28;;;;;;;;;;;13.70;99.90;;;;;;5071434;28;19927;-50
2022/10/27 07:09:54;;;;;;;;;;;14.00;99.90;;;;;;5071151;28;19920;-52
2022/10/27 07:12:19;;;;;;;;;;;14.40;99.90;;;;;;5080490;28;20022;-53
2022/10/27 07:14:45;;;;;;;;;;;14.70;99.90;;;;;;5072921;28;19924;-54
2022/10/27 07:17:10;;;;;;;;;;;15.10;99.90;;;;;;5086593;28;19924;-49
2022/10/27 07:19:36;;;;;;;;;;;15.50;99.90;;;;;;5078618;28;19942;-54
2022/10/27 07:22:01;;;;;;;;;;;15.80;99.90;;;;;;5071121;28;19925;-52
2022/10/27 07:24:26;;;;;;;;;;;16.00;99.90;;;;;;5070820;28;19928;-54
2022/10/27 07:26:52;;;;;;;;;;;16.10;99.90;;;;;;5081878;28;20217;-52
2022/10/27 07:29:17;;;;;;;;;;;16.30;99.90;;;;;;5090415;28;19920;-51
2022/10/27 07:31:46;;;;;;;;;;;16.40;99.90;;;;;;5076442;28;20020;-52
2022/10/27 07:34:12;;;;;;;;;;;16.30;99.90;;;;;;5074346;28;19955;-53
2022/10/27 07:36:37;;;;;;;;;;;16.10;99.90;;;;;;5082424;28;19970;-54
2022/10/27 07:39:03;;;;;;;;;;;15.90;99.90;;;;;;5085570;28;20393;-54
2022/10/27 07:41:29;;;;;;;;;;;15.80;99.90;;;;;;5092676;28;19946;-51
2022/10/27 07:43:54;;;;;;;;;;;15.80;99.90;;;;;;5086040;28;19924;-51
2022/10/27 07:46:19;;;;;;;;;;;15.60;99.90;;;;;;5086411;28;19928;-50
2022/10/27 07:48:45;;;;;;;;;;;15.50;99.90;;;;;;5080318;28;19924;-51
2022/10/27 07:51:10;;;;;;;;;;;15.50;99.90;;;;;;5081316;28;20278;-50
2022/10/27 07:53:36;;;;;;;;;;;15.40;99.90;;;;;;5093353;28;19920;-49
2022/10/27 07:56:01;;;;;;;;;;;15.30;99.90;;;;;;5076076;28;19944;-54
2022/10/27 07:58:27;;;;;;;;;;;15.20;99.90;;;;;;5073024;28;19921;-50
2022/10/27 08:00:53;;;;;;;;;;;15.20;99.90;;;;;;5093713;28;19920;-50
2022/10/27 08:03:24;;;;;;;;;;;15.20;99.90;;;;;;5080923;28;20415;-51
2022/10/27 08:05:49;;;;;;;;;;;15.10;99.90;;;;;;5073315;28;20336;-53
2022/10/27 08:08:15;;;;;;;;;;;15.20;99.90;;;;;;5082643;28;19927;-53
2022/10/27 08:10:41;;;;;;;;;;;15.20;99.90;;;;;;5082052;28;19974;-52
2022/10/27 08:13:07;;;;;;;;;;;15.20;99.90;;;;;;5088479;28;19931;-50
2022/10/27 08:15:33;;;;;;;;;;;15.30;99.90;;;;;;5076145;28;19920;-54
2022/10/27 08:18:01;;;;;;;;;;;15.40;99.90;;;;;;5091532;28;19990;-53
2022/10/27 08:20:30;;;;;;;;;;;15.50;99.90;;;;;;5088030;28;19920;-54
2022/10/27 08:22:55;;;;;;;;;;;15.60;99.90;;;;;;5076288;28;20020;-54
2022/10/27 08:25:21;;;;;;;;;;;15.60;99.90;;;;;;5074309;28;20019;-55
2022/10/27 08:27:46;;;;;;;;;;;15.70;99.90;;;;;;5088759;28;19928;-51
2022/10/27 08:30:11;;;;;;;;;;;15.70;99.90;;;;;;5081398;28;19920;-54
2022/10/27 08:32:37;;;;;;;;;;;15.70;99.90;;;;;;5085735;28;19920;-52
2022/10/27 08:35:02;;;;;;;;;;;15.70;99.90;;;;;;5092578;28;20337;-51
2022/10/27 08:37:28;;;;;;;;;;;15.80;99.90;;;;;;5086151;28;19989;-53
2022/10/27 08:39:53;;;;;;;;;;;15.80;99.90;;;;;;5091603;28;19920;-53
2022/10/27 08:42:35;;;;;;;;;;;15.70;99.90;;;;;;5089599;28;20450;-52
2022/10/27 08:45:03;;;;;;;;;;;15.70;99.90;;;;;;5091396;28;20400;-52
2022/10/27 08:47:29;;;;;;;;;;;15.60;99.90;;;;;;5088694;28;19927;-53
2022/10/27 08:50:15;;;;;;;;;;;15.60;99.90;;;;;;5092540;28;20388;-53
2022/10/27 08:52:47;;;;;;;;;;;15.50;99.90;;;;;;5088845;28;19927;-54
2022/10/27 08:55:13;;;;;;;;;;;15.50;99.90;;;;;;5071920;28;20401;-53
2022/10/27 08:57:59;;;;;;;;;;;15.50;99.90;;;;;;5085409;28;19970;-53
2022/10/27 09:00:24;;;;;;;;;;;15.50;99.90;;;;;;5072666;28;19921;-51
2022/10/27 09:02:56;;;;;;;;;;;15.50;99.90;;;;;;5085104;28;19920;-55
2022/10/27 09:05:24;;;;;;;;;;;15.60;99.90;;;;;;5078983;28;19982;-52
2022/10/27 09:08:00;;;;;;;;;;;15.70;99.90;;;;;;5090594;28;20354;-53
2022/10/27 09:10:34;;;;;;;;;;;15.80;99.90;;;;;;5091990;28;20313;-51
2022/10/27 09:13:06;;;;;;;;;;;16.10;99.90;;;;;;5083878;28;19928;-51
2022/10/27 09:15:40;;;;;;;;;;;16.30;99.90;;;;;;5078170;28;19920;-53
2022/10/27 09:18:06;;;;;;;;;;;16.60;99.90;;;;;;5072581;28;20401;-51
2022/10/27 09:20:48;;;;;;;;;;;16.80;99.90;;;;;;5072169;28;19928;-52
2022/10/27 09:23:17;;;;;;;;;;;16.90;99.90;;;;;;5083034;28;19926;-52
2022/10/27 09:25:45;;;;;;;;;;;17.10;99.90;;;;;;5083519;28;19995;-53
2022/10/27 09:28:26;;;;;;;;;;;17.20;99.90;;;;;;5081606;28;19974;-52
2022/10/27 09:30:52;;;;;;;;;;;17.30;99.90;;;;;;5081753;28;19924;-54
2022/10/27 09:33:19;;;;;;;;;;;17.40;99.90;;;;;;5080907;28;19927;-55
2022/10/27 09:35:44;;;;;;;;;;;17.40;99.90;;;;;;5089312;28;19927;-54
2022/10/27 09:38:14;;;;;;;;;;;17.40;99.90;;;;;;5090101;28;19920;-51
2022/10/27 09:40:39;;;;;;;;;;;17.40;99.90;;;;;;5090724;28;19924;-55
2022/10/27 09:43:05;;;;;;;;;;;17.50;99.90;;;;;;5089543;28;19981;-54
2022/10/27 09:45:30;;;;;;;;;;;17.50;99.90;;;;;;5091741;28;19924;-55
2022/10/27 09:47:58;;;;;;;;;;;17.60;99.90;;;;;;5083077;28;20304;-52
2022/10/27 09:50:42;;;;;;;;;;;17.60;99.90;;;;;;5084194;28;19921;-53
2022/10/27 09:53:27;;;;;;;;;;;17.60;99.90;;;;;;5072165;28;21124;-53
2022/10/27 09:55:53;;;;;;;;;;;17.70;99.90;;;;;;5081863;28;19921;-52
2022/10/27 09:58:19;;;;;;;;;;;17.80;99.90;;;;;;5078066;28;20312;-55
2022/10/27 10:00:54;;;;;;;;;;;17.90;99.90;;;;;;5072060;28;19928;-54
2022/10/27 10:03:20;;;;;;;;;;;17.90;99.90;;;;;;5073634;28;19928;-53
2022/10/27 10:05:58;;;;;;;;;;;17.90;99.90;;;;;;5079610;28;19924;-54
2022/10/27 10:08:25;;;;;;;;;;;17.90;99.90;;;;;;5077087;28;20003;-52
2022/10/27 10:10:58;;;;;;;;;;;18.00;99.90;;;;;;5090566;28;19920;-55
2022/10/27 10:13:24;;;;;;;;;;;18.00;99.90;;;;;;5088702;28;19935;-54
2022/10/27 10:16:04;;;;;;;;;;;18.00;99.90;;;;;;5081277;28;19981;-55
2022/10/27 10:18:30;;;;;;;;;;;18.00;99.90;;;;;;5072621;28;19928;-53
2022/10/27 10:21:22;;;;;;;;;;;18.10;99.90;;;;;;5091144;28;19946;-52
2022/10/27 10:23:50;;;;;;;;;;;18.20;99.90;;;;;;5086463;28;19924;-54
2022/10/27 10:26:17;;;;;;;;;;;18.50;99.90;;;;;;5088222;28;19977;-51
2022/10/27 10:28:43;;;;;;;;;;;18.60;99.90;;;;;;5091032;28;19927;-55
2022/10/27 10:31:11;;;;;;;;;;;18.60;99.90;;;;;;5088264;28;19920;-53
2022/10/27 10:33:38;;;;;;;;;;;18.80;99.90;;;;;;5090610;28;20533;-52
2022/10/27 10:36:22;;;;;;;;;;;19.00;99.90;;;;;;5088258;28;19977;-51
2022/10/27 10:38:52;;;;;;;;;;;19.10;99.90;;;;;;5086570;28;20400;-52
2022/10/27 10:41:20;;;;;;;;;;;19.20;99.90;;;;;;5074281;28;20363;-54
2022/10/27 10:43:46;;;;;;;;;;;19.30;99.90;;;;;;5073747;28;19994;-51
2022/10/27 10:46:20;;;;;;;;;;;19.40;99.90;;;;;;5079568;28;19920;-52
2022/10/27 10:48:56;;;;;;;;;;;19.40;99.90;;;;;;5090446;28;19927;-54
2022/10/27 10:51:26;;;;;;;;;;;19.50;99.90;;;;;;5076232;28;20377;-55
2022/10/27 10:53:52;;;;;;;;;;;19.40;99.90;;;;;;5090497;28;19924;-54
2022/10/27 10:56:20;;;;;;;;;;;19.40;99.90;;;;;;5084967;28;20358;-53
2022/10/27 10:58:46;;;;;;;;;;;19.40;99.90;;;;;;5070501;28;19925;-55
2022/10/27 11:01:11;;;;;;;;;;;19.40;99.90;;;;;;5086183;28;19921;-56
2022/10/27 11:03:40;;;;;;;;;;;19.40;99.90;;;;;;5074853;28;19920;-60
2022/10/27 11:06:12;;;;;;;;;;;19.40;99.90;;;;;;5074529;28;19990;-60
2022/10/27 11:08:40;;;;;;;;;;;19.40;99.90;;;;;;5092257;28;20011;-60
2022/10/27 11:11:10;;;;;;;;;;;19.30;99.90;;;;;;5091186;28;19920;-62
2022/10/27 11:13:37;;;;;;;;;;;19.30;99.90;;;;;;5088957;28;19934;-62
2022/10/27 11:16:05;;;;;;;;;;;19.40;99.90;;;;;;5081177;28;19928;-62
2022/10/27 11:18:43;;;;;;;;;;;19.40;99.90;;;;;;5081500;28;19920;-61
2022/10/27 11:21:18;;;;;;;;;;;19.50;99.90;;;;;;5074392;28;20305;-61
2022/10/27 11:23:57;;;;;;;;;;;19.60;99.90;;;;;;5088859;28;19975;-60
2022/10/27 11:26:26;;;;;;;;;;;19.80;99.90;;;;;;5086917;28;19950;-60
2022/10/27 11:29:10;;;;;;;;;;;19.90;99.90;;;;;;5083891;28;19946;-59
2022/10/27 11:31:40;;;;;;;;;;;19.80;99.90;;;;;;5078526;28;19936;-59
2022/10/27 11:34:17;;;;;;;;;;;19.80;99.90;;;;;;5089292;28;19931;-58
2022/10/27 11:36:46;;;;;;;;;;;19.80;99.90;;;;;;5094283;28;19920;-55
2022/10/27 11:39:15;;;;;;;;;;;19.70;99.90;;;;;;5085764;28;19920;-56
2022/10/27 11:41:44;;;;;;;;;;;19.60;99.90;;;;;;5079361;28;20307;-56
2022/10/27 11:44:30;;;;;;;;;;;19.50;99.90;;;;;;5091475;28;20369;-56
2022/10/27 11:47:03;;;;;;;;;;;19.40;99.90;;;;;;5101948;28;19931;-55
2022/10/27 11:49:55;;;;;;;;;;;19.30;99.90;;;;;;5081604;28;19920;-56
2022/10/27 11:52:28;;;;;;;;;;;19.30;99.90;;;;;;5074183;28;20188;-56
2022/10/27 11:54:55;;;;;;;;;;;19.20;99.90;;;;;;5088868;28;19920;-57
2022/10/27 11:57:39;;;;;;;;;;;19.20;99.90;;;;;;5080160;28;19921;-56
2022/10/27 12:00:14;;;;;;;;;;;19.10;99.90;;;;;;5086365;28;20347;-57
2022/10/27 12:03:12;;;;;;;;;;;19.10;99.90;;;;;;5092276;28;20018;-56
2022/10/27 12:05:44;;;;;;;;;;;19.00;99.90;;;;;;5018057;28;20654;-56
2022/10/27 12:08:09;;;;;;;;;;;19.10;99.90;;;;;;5080404;28;20017;-56
2022/10/27 12:10:39;;;;;;;;;;;19.10;99.90;;;;;;5088924;28;20416;-57
2022/10/27 12:13:20;;;;;;;;;;;19.00;99.90;;;;;;5076693;28;19921;-56
2022/10/27 12:16:12;;;;;;;;;;;19.10;99.90;;;;;;5093130;28;19981;-55
2022/10/27 12:18:41;;;;;;;;;;;19.10;99.90;;;;;;5033811;28;19928;-57
2022/10/27 12:21:09;;;;;;;;;;;19.10;99.90;;;;;;5040606;28;19924;-57
2022/10/27 12:23:38;;;;;;;;;;;19.20;99.90;;;;;;5049142;28;19976;-57
2022/10/27 12:26:04;;;;;;;;;;;19.30;99.90;;;;;;5050211;28;19921;-57
2022/10/27 12:28:31;;;;;;;;;;;19.40;99.90;;;;;;5024004;28;19928;-57
2022/10/27 12:30:58;;;;;;;;;;;19.40;99.90;;;;;;5042856;28;19999;-57
2022/10/27 12:33:23;;;;;;;;;;;19.50;99.90;;;;;;5043306;28;19921;-56
2022/10/27 12:35:50;;;;;;;;;;;19.60;99.90;;;;;;5033318;28;20468;-57
2022/10/27 12:38:19;;;;;;;;;;;19.80;99.90;;;;;;5032048;28;20023;-54
2022/10/27 12:40:47;;;;;;;;;;;20.00;99.90;;;;;;5036497;28;19921;-56
2022/10/27 12:43:31;;;;;;;;;;;20.10;99.90;;;;;;5036183;28;19960;-58
2022/10/27 12:46:05;;;;;;;;;;;20.20;99.90;;;;;;5047667;28;19940;-57
2022/10/27 12:48:38;;;;;;;;;;;20.20;99.90;;;;;;5036457;28;20006;-57
2022/10/27 12:51:03;;;;;;;;;;;20.20;99.90;;;;;;5014782;28;19944;-55
2022/10/27 12:53:41;;;;;;;;;;;20.20;99.90;;;;;;5029573;28;19921;-57
2022/10/27 12:56:26;;;;;;;;;;;20.10;99.90;;;;;;5069966;28;19920;-56
2022/10/27 12:59:02;;;;;;;;;;;20.00;99.90;;;;;;5097185;28;19928;-56
2022/10/27 13:01:33;;;;;;;;;;;20.00;99.90;;;;;;5091155;28;19986;-57
2022/10/27 13:04:17;;;;;;;;;;;20.00;99.90;;;;;;5090652;28;19924;-57
2022/10/27 13:06:49;;;;;;;;;;;19.90;99.90;;;;;;5085597;28;19927;-58
2022/10/27 13:09:17;;;;;;;;;;;19.90;99.90;;;;;;5085020;28;19943;-55
2022/10/27 13:11:55;;;;;;;;;;;20.00;99.90;;;;;;5085765;28;19920;-56
2022/10/27 13:14:30;;;;;;;;;;;20.10;99.90;;;;;;5088063;28;20301;-53
2022/10/27 13:17:07;;;;;;;;;;;20.20;99.90;;;;;;5083157;28;19929;-54
2022/10/27 13:19:42;;;;;;;;;;;20.30;99.90;;;;;;5073310;28;19920;-56
2022/10/27 13:22:08;;;;;;;;;;;20.40;99.90;;;;;;5081296;28;20347;-55
2022/10/27 13:24:43;;;;;;;;;;;20.40;99.90;;;;;;5089513;28;19928;-56
2022/10/27 13:27:17;;;;;;;;;;;20.40;99.90;;;;;;5076635;28;19920;-55
2022/10/27 13:29:58;;;;;;;;;;;20.40;99.90;;;;;;5075576;28;20308;-56
2022/10/27 13:32:28;;;;;;;;;;;20.40;99.90;;;;;;5087429;28;19928;-58
2022/10/27 13:35:00;;;;;;;;;;;20.50;99.90;;;;;;5073384;28;20120;-53
2022/10/27 13:37:46;;;;;;;;;;;20.60;99.90;;;;;;5070268;28;20352;-56
2022/10/27 13:40:17;;;;;;;;;;;20.60;99.90;;;;;;5079524;28;19945;-57
2022/10/27 13:42:44;;;;;;;;;;;20.70;99.90;;;;;;5083451;28;20290;-53
2022/10/27 13:45:28;;;;;;;;;;;20.60;99.90;;;;;;5077139;28;20568;-54
2022/10/27 13:48:02;;;;;;;;;;;20.60;99.90;;;;;;5071123;28;20300;-56
2022/10/27 13:50:31;;;;;;;;;;;20.50;99.90;;;;;;5076280;28;19920;-53
2022/10/27 13:53:16;;;;;;;;;;;20.30;99.90;;;;;;5090988;28;19920;-55
2022/10/27 13:55:43;;;;;;;;;;;20.20;99.90;;;;;;5080320;28;19920;-54
2022/10/27 13:58:17;;;;;;;;;;;20.10;99.90;;;;;;5071634;28;19920;-56
2022/10/27 14:01:01;;;;;;;;;;;19.90;99.90;;;;;;5076283;28;19920;-56
2022/10/27 14:03:36;;;;;;;;;;;19.80;99.90;;;;;;5091235;28;20052;-56
2022/10/27 14:06:02;;;;;;;;;;;19.60;99.90;;;;;;5088705;28;20285;-54
2022/10/27 14:08:29;;;;;;;;;;;19.50;99.90;;;;;;5090431;28;20400;-55
2022/10/27 14:10:56;;;;;;;;;;;19.30;99.90;;;;;;5084349;28;19920;-53
2022/10/27 14:13:38;;;;;;;;;;;19.30;99.90;;;;;;5082448;28;19945;-55
2022/10/27 14:16:04;;;;;;;;;;;19.20;99.90;;;;;;5086098;28;19967;-55
2022/10/27 14:18:36;;;;;;;;;;;19.20;99.90;;;;;;5084298;28;20309;-54
2022/10/27 14:21:21;;;;;;;;;;;19.10;99.90;;;;;;5082829;28;19920;-55
2022/10/27 14:23:47;;;;;;;;;;;19.10;99.90;;;;;;5086715;28;19920;-56
2022/10/27 14:26:32;;;;;;;;;;;19.10;99.90;;;;;;5088857;28;19931;-53